Tatitlek, Alaska
Current Conditions -  °F | °C
As of 2:16 PM on Wednesday 26 Nov 2014 (Local Time) from PAVD Reporting Station
Few Clouds Few Clouds  
Wind Chill: 34°   Ceiling: Unl
Heat Index: 34°   Visibility: 10mi
Dew Point: 19°   Wind: 0mph
Humidity: 56%   Direction: NA
Pressure: 30.24"   Gusts: NA
Location:  60.88°N, 146.68°W
Report Text: PAVD 262316Z 00000KT 10SM FEW150 01/M07 A3024 RMK AO1 2247Z WEA: NONE BLSN FRM MT TOPS TWR WND 00000KT
Loading
Personal Weather Stations






























Interactive Weather Map New forecast layout! Learn more

10-Day Weather Forecast

Advertisements
Track Severe Weather on mobile